РПИ Минск

Руководитель РПИ

Roman Savel*

Инструкторы РПИ
Denis Kashin (Instructor)
Maxim Gerasimov (Instructor)
Roman Savel (Instructor)
Входит в состав
ЗЦ Беларусь

Диспетчеры РПИ

Диспетчер Рейтинг Допуски *
Andrei Valasevich Controller UMMV_CTR
Denis Kashin Instructor UMMV_CTR
Maxim Gerasimov Instructor UMMV_CTR
Roman Savel Instructor UMMV_CTR
Alexander Nazarenko Student UMMS_GND
Alexey Verbitsky Student UMMS_GND
Anna Piliushko Student 2 UMMS_APP*
Artyom Somok Student UMMS_GND
Danila Yarov Senior Student UMMS_APP
Dmitriy Kuzmin Student 2 UMMS_2_TWR*, UMMS_1_TWR*
Ignat Morozov Student UMMS_GND
Iosif Karpov Student 2 UMMS_R_APP*
Ivan Davidovich Student UMMS_GND
Maxim Ivantsov Student 2 UMMS_R_APP*
Michael Kostelcev Student 2 UMMS_APP*
Pavel Yashin Student 2 UMMS_APP*

Аэропорты РПИ

ICAO Город Название Погода
UMMS Минск Минск UMMS 161830Z 23006MPS 9999 BKN012 M01/M04 Q1008 NOSIG
UMBB Брест Брест UMBB 161300Z 24006MPS 5000 BR OVC014 00/M04 Q1017 NOSIG
UMII Витебск Восточный UMII 161600Z 23005G08MPS 9999 BKN017 M02/M04 Q1008 TEMPO 3000 BR BKN007
UMGG Гомель Гомель UMGG 161800Z 22007MPS CAVOK M02/M05 Q1013 NOSIG
UMMG Гродно Гродно UMMG 161300Z 24004G07MPS 9999 OVC014 M01/M06 Q1016 NOSIG
UMOO Могилёв Могилёв UMOO 161300Z 25005MPS 9999 BKN040 M00/M08 Q1015 NOSIG